Redding (RDD/KRDD)

Map

Destinations

Information

Location
Redding, CA
Local Time
10:00 / 10:00 am
GMT Time
18:00 / 6:00 pm
Gates
3
No FAA reported delays
METAR KRDD 191653Z 00000KT 10SM CLR 04/03 A3017 RMK AO2 SLP217 T00440028
TAF KRDD 191120Z 1912/2012 33005KT P6SM SCT250 FM200000 18006KT P6SM OVC120